createdAt,value
2023-01-28T00:00:34.155Z,97690.34
2023-01-28T00:02:37.150Z,97687.78
2023-01-28T00:04:40.171Z,97692.03
2023-01-28T00:06:42.886Z,97680.91
2023-01-28T00:08:47.214Z,97681.78
2023-01-28T00:10:49.771Z,97682.66
2023-01-28T00:12:52.290Z,97688.59
2023-01-28T00:14:54.848Z,97685.19
2023-01-28T00:16:57.385Z,97680.91
2023-01-28T00:18:59.979Z,97680.91
2023-01-28T00:21:04.581Z,97679.22
2023-01-28T00:23:07.334Z,97676.63
2023-01-28T00:25:11.334Z,97674.06
2023-01-28T00:27:13.891Z,97676.63
2023-01-28T00:29:16.423Z,97667.22
2023-01-28T00:31:22.112Z,97672.34
2023-01-28T00:33:25.139Z,97670.66
2023-01-28T00:35:28.003Z,97668.94
2023-01-28T00:37:30.554Z,97665.53
2023-01-28T00:39:33.332Z,97673.25
2023-01-28T00:41:37.437Z,97669.81
2023-01-28T00:43:40.820Z,97668.06
2023-01-28T00:45:43.730Z,97667.22
2023-01-28T00:47:46.247Z,97664.66
2023-01-28T00:49:48.802Z,97674.94
2023-01-28T00:51:51.402Z,97664.66
2023-01-28T00:53:54.020Z,97665.50
2023-01-28T00:55:56.643Z,97661.22
2023-01-28T00:58:00.523Z,97665.50
2023-01-28T01:00:03.355Z,97663.78
2023-01-28T01:02:13.089Z,97659.53
2023-01-28T01:04:26.946Z,97665.50
2023-01-28T01:06:31.354Z,97668.06
2023-01-28T01:08:35.971Z,97670.66
2023-01-28T01:10:39.137Z,97669.81
2023-01-28T01:12:42.195Z,97674.06
2023-01-28T01:14:46.074Z,97675.78
2023-01-28T01:16:48.686Z,97668.94
2023-01-28T01:18:52.827Z,97668.09
2023-01-28T01:20:58.919Z,97679.19
2023-01-28T01:23:01.493Z,97678.34
2023-01-28T01:25:05.101Z,97666.38
2023-01-28T01:27:07.655Z,97669.81
2023-01-28T01:29:10.758Z,97670.69
2023-01-28T01:31:15.977Z,97664.66
2023-01-28T01:33:18.676Z,97664.69
2023-01-28T01:35:21.260Z,97680.03
2023-01-28T01:37:23.797Z,97676.63
2023-01-28T01:39:26.476Z,97674.94
2023-01-28T01:41:31.351Z,97677.53
2023-01-28T01:43:48.462Z,97675.81
2023-01-28T01:45:57.081Z,97680.94
2023-01-28T01:48:04.852Z,97687.78
2023-01-28T01:50:15.092Z,97683.50
2023-01-28T01:52:24.239Z,97685.22
2023-01-28T01:54:29.531Z,97690.34
2023-01-28T01:56:38.727Z,97692.03
2023-01-28T01:58:45.094Z,97699.75
2023-01-28T02:00:47.671Z,97692.03
2023-01-28T02:02:52.333Z,97691.19
2023-01-28T02:04:56.291Z,97697.19
2023-01-28T02:07:01.490Z,97704.06
2023-01-28T02:09:04.447Z,97695.50
2023-01-28T02:11:09.558Z,97705.78
2023-01-28T02:13:12.330Z,97698.06
2023-01-28T02:15:18.320Z,97694.63
2023-01-28T02:17:21.809Z,97699.81
2023-01-28T02:19:28.350Z,97698.06
2023-01-28T02:22:06.878Z,97696.34
2023-01-28T02:24:31.173Z,97701.50
2023-01-28T02:26:51.208Z,97701.50
2023-01-28T02:28:59.567Z,97695.53
2023-01-28T02:31:09.841Z,97702.41
2023-01-28T02:33:18.777Z,97702.38
2023-01-28T02:35:30.363Z,97704.97
2023-01-28T02:37:39.193Z,97704.09
2023-01-28T02:39:48.896Z,97705.78
2023-01-28T02:41:54.802Z,97704.94
2023-01-28T02:43:58.746Z,97705.78
2023-01-28T02:46:27.249Z,97704.06
2023-01-28T02:48:29.879Z,97703.22
2023-01-28T02:50:44.461Z,97702.31
2023-01-28T02:53:20.619Z,97695.47
2023-01-28T02:55:33.608Z,97708.31
2023-01-28T02:57:44.197Z,97702.34
2023-01-28T02:59:52.593Z,97701.50
2023-01-28T03:02:01.584Z,97701.50
2023-01-28T03:04:09.154Z,97698.06
2023-01-28T03:06:15.861Z,97700.56
2023-01-28T03:08:36.410Z,97699.72
2023-01-28T03:10:39.006Z,97704.00
2023-01-28T03:13:02.544Z,97709.19
2023-01-28T03:15:27.545Z,97712.59
2023-01-28T03:17:54.900Z,97713.44
2023-01-28T03:20:15.442Z,97702.31
2023-01-28T03:22:35.698Z,97709.13
2023-01-28T03:25:02.496Z,97704.00
2023-01-28T03:27:27.216Z,97704.84
2023-01-28T03:29:50.589Z,97700.56
2023-01-28T03:32:13.549Z,97704.00
2023-01-28T03:34:33.883Z,97705.75
2023-01-28T03:36:50.339Z,97708.31
2023-01-28T03:38:53.150Z,97715.16
2023-01-28T03:40:58.196Z,97710.84
2023-01-28T03:43:00.829Z,97706.56
2023-01-28T03:45:04.777Z,97717.66
2023-01-28T03:47:09.035Z,97717.69
2023-01-28T03:49:11.591Z,97717.72
2023-01-28T03:51:14.181Z,97717.72
2023-01-28T03:53:17.219Z,97728.00
2023-01-28T03:55:19.825Z,97736.59
2023-01-28T03:57:25.067Z,97722.88
2023-01-28T03:59:27.657Z,97722.88
2023-01-28T04:01:30.344Z,97733.16
2023-01-28T04:03:34.243Z,97733.16
2023-01-28T04:05:36.767Z,97730.56
2023-01-28T04:07:39.781Z,97724.56
2023-01-28T04:09:43.177Z,97730.59
2023-01-28T04:11:46.261Z,97727.19
2023-01-28T04:13:52.072Z,97726.31
2023-01-28T04:15:54.657Z,97718.59
2023-01-28T04:17:57.227Z,97722.91
2023-01-28T04:20:03.421Z,97729.78
2023-01-28T04:22:07.772Z,97727.19
2023-01-28T04:24:10.699Z,97730.56
2023-01-28T04:26:13.279Z,97733.16
2023-01-28T04:28:15.815Z,97737.47
2023-01-28T04:30:18.927Z,97744.28
2023-01-28T04:32:21.483Z,97740.88
2023-01-28T04:34:24.086Z,97743.44
2023-01-28T04:36:28.241Z,97743.44
2023-01-28T04:38:30.790Z,97751.13
2023-01-28T04:40:33.393Z,97744.31
2023-01-28T04:42:36.079Z,97746.88
2023-01-28T04:44:38.640Z,97754.56
2023-01-28T04:46:43.016Z,97751.13
2023-01-28T04:48:45.703Z,97758.91
2023-01-28T04:50:48.280Z,97757.16
2023-01-28T04:52:52.175Z,97761.41
2023-01-28T04:54:54.718Z,97760.56
2023-01-28T04:56:57.291Z,97760.53
2023-01-28T04:58:59.870Z,97769.13
2023-01-28T05:01:02.543Z,97776.81
2023-01-28T05:03:05.127Z,97767.41
2023-01-28T05:05:08.924Z,97767.41
2023-01-28T05:07:11.901Z,97764.84
2023-01-28T05:09:15.838Z,97759.72
2023-01-28T05:11:18.437Z,97762.28
2023-01-28T05:13:20.957Z,97765.72
2023-01-28T05:15:23.883Z,97758.84
2023-01-28T05:17:26.511Z,97758.00
2023-01-28T05:19:29.070Z,97763.16
2023-01-28T05:21:31.645Z,97767.41
2023-01-28T05:23:34.283Z,97770.84
2023-01-28T05:25:38.177Z,97775.13
2023-01-28T05:27:40.797Z,97772.56
2023-01-28T05:29:43.352Z,97769.16
2023-01-28T05:31:45.931Z,97769.19
2023-01-28T05:33:48.505Z,97770.06
2023-01-28T05:35:51.061Z,97764.94
2023-01-28T05:37:53.673Z,97765.75
2023-01-28T05:39:56.193Z,97771.75
2023-01-28T05:42:00.146Z,97776.88
2023-01-28T05:44:02.982Z,97775.16
2023-01-28T05:46:05.951Z,97771.75
2023-01-28T05:48:08.954Z,97770.88
2023-01-28T05:50:15.036Z,97774.31
2023-01-28T05:52:17.909Z,97775.16
2023-01-28T05:54:20.608Z,97778.59
2023-01-28T05:56:23.223Z,97779.41
2023-01-28T05:58:30.809Z,97781.97
2023-01-28T06:00:33.465Z,97778.56
2023-01-28T06:02:36.079Z,97785.41
2023-01-28T06:04:39.105Z,97787.13
2023-01-28T06:06:41.684Z,97789.69
2023-01-28T06:08:44.240Z,97791.41
2023-01-28T06:10:47.271Z,97795.69
2023-01-28T06:12:49.924Z,97793.13
2023-01-28T06:14:53.845Z,97797.44
2023-01-28T06:16:56.403Z,97792.31
2023-01-28T06:18:59.434Z,97798.28
2023-01-28T06:21:02.000Z,97797.44
2023-01-28T06:23:04.562Z,97802.56
2023-01-28T06:25:08.387Z,97807.72
2023-01-28T06:27:12.119Z,97807.69
2023-01-28T06:29:14.670Z,97800.84
2023-01-28T06:31:19.078Z,97800.84
2023-01-28T06:33:22.627Z,97803.41
2023-01-28T06:35:25.320Z,97809.41
2023-01-28T06:37:27.965Z,97811.97
2023-01-28T06:39:31.866Z,97817.09
2023-01-28T06:41:34.446Z,97820.53
2023-01-28T06:43:37.062Z,97831.66
2023-01-28T06:45:39.713Z,97828.28
2023-01-28T06:48:01.302Z,97832.53
2023-01-28T06:50:03.894Z,97827.44
2023-01-28T06:52:06.546Z,97836.88
2023-01-28T06:54:09.552Z,97832.59
2023-01-28T06:56:12.212Z,97836.88
2023-01-28T06:58:15.088Z,97837.75
2023-01-28T07:00:19.516Z,97833.44
2023-01-28T07:02:22.076Z,97844.56
2023-01-28T07:04:26.095Z,97840.25
2023-01-28T07:06:28.677Z,97843.72
2023-01-28T07:08:31.324Z,97848.84
2023-01-28T07:10:34.157Z,97848.81
2023-01-28T07:12:36.720Z,97847.13
2023-01-28T07:14:39.309Z,97848.84
2023-01-28T07:16:41.879Z,97850.59
2023-01-28T07:18:44.469Z,97846.28
2023-01-28T07:20:48.366Z,97852.28
2023-01-28T07:22:51.073Z,97855.75
2023-01-28T07:24:53.602Z,97857.47
2023-01-28T07:26:56.202Z,97853.19
2023-01-28T07:28:58.765Z,97857.47
2023-01-28T07:31:01.419Z,97869.47
2023-01-28T07:33:04.100Z,97858.34
2023-01-28T07:35:07.837Z,97868.59
2023-01-28T07:37:11.918Z,97871.19
2023-01-28T07:39:14.477Z,97874.63
2023-01-28T07:41:17.059Z,97873.75
2023-01-28T07:43:19.610Z,97868.59
2023-01-28T07:45:22.245Z,97879.75
2023-01-28T07:47:24.879Z,97875.47
2023-01-28T07:49:27.474Z,97873.75
2023-01-28T07:51:29.988Z,97877.22
2023-01-28T07:53:33.880Z,97878.09
2023-01-28T07:55:36.740Z,97878.03
2023-01-28T07:57:39.304Z,97877.19
2023-01-28T07:59:41.873Z,97871.22
2023-01-28T08:01:44.578Z,97883.16
2023-01-28T08:03:47.189Z,97876.34
2023-01-28T08:05:52.937Z,97882.34
2023-01-28T08:07:55.555Z,97888.38
2023-01-28T08:09:59.448Z,97893.50
2023-01-28T08:12:03.616Z,97890.09
2023-01-28T08:14:06.264Z,97887.53
2023-01-28T08:16:09.135Z,97900.38
2023-01-28T08:18:13.648Z,97900.47
2023-01-28T08:20:17.047Z,97899.66
2023-01-28T08:22:19.764Z,97903.00
2023-01-28T08:24:22.358Z,97902.16
2023-01-28T08:26:26.322Z,97907.38
2023-01-28T08:28:29.248Z,97896.25
2023-01-28T08:30:32.223Z,97898.91
2023-01-28T08:32:34.802Z,97902.25
2023-01-28T08:34:37.622Z,97906.59
2023-01-28T08:36:40.180Z,97904.00
2023-01-28T08:38:43.407Z,97906.59
2023-01-28T08:40:46.028Z,97895.47
2023-01-28T08:42:50.470Z,97900.59
2023-01-28T08:44:52.997Z,97905.78
2023-01-28T08:46:55.506Z,97901.47
2023-01-28T08:48:58.085Z,97901.50
2023-01-28T08:51:00.916Z,97905.81
2023-01-28T08:53:05.797Z,97905.81
2023-01-28T08:55:09.563Z,97909.25
2023-01-28T08:57:12.166Z,97910.09
2023-01-28T08:59:16.156Z,97910.09
2023-01-28T09:01:18.752Z,97913.53
2023-01-28T09:03:21.353Z,97917.88
2023-01-28T09:05:24.138Z,97911.03
2023-01-28T09:07:26.754Z,97912.75
2023-01-28T09:09:31.196Z,97922.16
2023-01-28T09:11:33.763Z,97923.06
2023-01-28T09:13:36.336Z,97921.34
2023-01-28T09:15:40.476Z,97922.25
2023-01-28T09:17:43.058Z,97918.78
2023-01-28T09:19:45.608Z,97924.81
2023-01-28T09:21:48.179Z,97922.25
2023-01-28T09:23:50.755Z,97929.09
2023-01-28T09:26:01.071Z,97930.84
2023-01-28T09:28:04.123Z,97919.69
2023-01-28T09:30:07.581Z,97920.53
2023-01-28T09:32:11.458Z,97917.13
2023-01-28T09:34:14.182Z,97924.81
2023-01-28T09:36:16.708Z,97929.16
2023-01-28T09:38:19.246Z,97932.53
2023-01-28T09:40:31.426Z,97932.56
2023-01-28T09:42:47.803Z,97945.47
2023-01-28T09:45:02.368Z,97942.06
2023-01-28T09:47:10.517Z,97950.63
2023-01-28T09:49:22.132Z,97943.72
2023-01-28T09:51:33.429Z,97942.03
2023-01-28T09:53:40.575Z,97945.47
2023-01-28T09:55:47.044Z,97951.50
2023-01-28T09:57:53.179Z,97957.50
2023-01-28T09:59:55.797Z,97948.03
2023-01-28T10:02:05.604Z,97950.63
2023-01-28T10:04:23.252Z,97950.66
2023-01-28T10:06:35.222Z,97954.09
2023-01-28T10:08:57.694Z,97955.00
2023-01-28T10:11:12.102Z,97954.97
2023-01-28T10:13:37.821Z,97955.84
2023-01-28T10:15:56.002Z,97952.44
2023-01-28T10:18:16.622Z,97954.19
2023-01-28T10:20:28.866Z,97949.06
2023-01-28T10:22:33.430Z,97944.84
2023-01-28T10:24:37.641Z,97942.28
2023-01-28T10:26:42.606Z,97945.75
2023-01-28T10:28:54.622Z,97942.31
2023-01-28T10:30:57.695Z,97935.47
2023-01-28T10:33:05.334Z,97938.03
2023-01-28T10:35:08.455Z,97932.88
2023-01-28T10:37:14.507Z,97930.31
2023-01-28T10:39:19.171Z,97930.38
2023-01-28T10:41:25.762Z,97935.53
2023-01-28T10:43:32.298Z,97926.94
2023-01-28T10:45:41.486Z,97928.69
2023-01-28T10:47:48.216Z,97929.56
2023-01-28T10:49:56.126Z,97926.97
2023-01-28T10:51:58.921Z,97927.00
2023-01-28T10:54:03.103Z,97923.63
2023-01-28T10:56:08.758Z,97915.81
2023-01-28T10:58:18.403Z,97926.13
2023-01-28T11:00:27.228Z,97921.00
2023-01-28T11:02:33.169Z,97916.75
2023-01-28T11:04:37.142Z,97921.91
2023-01-28T11:06:40.735Z,97921.91
2023-01-28T11:08:45.405Z,97917.63
2023-01-28T11:10:50.217Z,97911.59
2023-01-28T11:12:56.835Z,97915.06
2023-01-28T11:15:01.264Z,97919.38
2023-01-28T11:17:04.054Z,97926.25
2023-01-28T11:19:07.390Z,97922.81
2023-01-28T11:21:19.453Z,97917.69
2023-01-28T11:23:25.769Z,97925.41
2023-01-28T11:25:32.298Z,97922.84
2023-01-28T11:27:36.564Z,97928.84
2023-01-28T11:29:42.029Z,97921.13
2023-01-28T11:31:45.503Z,97924.53
2023-01-28T11:33:51.954Z,97924.53
2023-01-28T11:35:55.912Z,97929.69
2023-01-28T11:37:59.536Z,97934.84
2023-01-28T11:40:04.195Z,97927.09
2023-01-28T11:42:16.931Z,97932.25
2023-01-28T11:44:24.372Z,97931.44
2023-01-28T11:46:44.460Z,97928.81
2023-01-28T11:48:54.927Z,97930.56
2023-01-28T11:51:02.232Z,97932.25
2023-01-28T11:53:36.875Z,97929.69
2023-01-28T11:55:48.685Z,97933.13
2023-01-28T11:57:58.286Z,97930.50
2023-01-28T12:00:19.128Z,97932.25
2023-01-28T12:02:38.802Z,97927.94
2023-01-28T12:04:59.217Z,97926.22
2023-01-28T12:07:20.632Z,97920.22
2023-01-28T12:09:35.692Z,97927.06
2023-01-28T12:12:08.361Z,97918.50
2023-01-28T12:14:21.525Z,97924.50
2023-01-28T12:16:41.569Z,97924.50
2023-01-28T12:19:10.405Z,97914.22
2023-01-28T12:21:24.250Z,97922.81
2023-01-28T12:23:44.547Z,97917.69
2023-01-28T12:26:02.163Z,97919.38
2023-01-28T12:28:15.111Z,97925.41
2023-01-28T12:30:30.225Z,97922.84
2023-01-28T12:32:50.188Z,97919.38
2023-01-28T12:35:18.742Z,97918.50
2023-01-28T12:37:31.618Z,97916.81
2023-01-28T12:39:48.028Z,97916.81
2023-01-28T12:41:56.899Z,97921.13
2023-01-28T12:44:03.488Z,97927.09
2023-01-28T12:46:11.706Z,97924.53
2023-01-28T12:48:19.054Z,97923.66
2023-01-28T12:50:26.128Z,97922.78
2023-01-28T12:52:34.100Z,97926.22
2023-01-28T12:54:40.473Z,97929.63
2023-01-28T12:56:47.842Z,97929.63
2023-01-28T12:58:58.089Z,97928.75
2023-01-28T13:01:08.356Z,97930.44
2023-01-28T13:03:18.682Z,97923.59
2023-01-28T13:05:28.208Z,97924.47
2023-01-28T13:07:36.316Z,97923.59
2023-01-28T13:09:44.123Z,97923.59
2023-01-28T13:11:49.297Z,97928.75
2023-01-28T13:13:52.509Z,97928.75
2023-01-28T13:15:55.157Z,97921.88
2023-01-28T13:18:00.271Z,97925.31
2023-01-28T13:20:16.211Z,97925.28
2023-01-28T13:22:30.145Z,97922.72
2023-01-28T13:24:33.823Z,97930.44
2023-01-28T13:26:44.324Z,97931.31
2023-01-28T13:28:48.354Z,97921.84
2023-01-28T13:30:51.015Z,97921.91
2023-01-28T13:32:59.816Z,97921.00
2023-01-28T13:35:06.969Z,97917.56
2023-01-28T13:37:23.062Z,97913.31
2023-01-28T13:39:28.092Z,97912.47
2023-01-28T13:41:41.884Z,97915.94
2023-01-28T13:43:44.500Z,97914.22
2023-01-28T13:45:57.727Z,97920.25
2023-01-28T13:48:15.416Z,97920.31
2023-01-28T13:50:21.627Z,97920.34
2023-01-28T13:52:28.520Z,97920.31
2023-01-28T13:54:36.269Z,97922.03
2023-01-28T13:56:43.498Z,97920.31
2023-01-28T13:59:33.412Z,97922.00
2023-01-28T14:02:04.172Z,97926.31
2023-01-28T14:04:35.392Z,97926.31
2023-01-28T14:06:59.972Z,97931.47
2023-01-28T14:09:30.247Z,97933.19
2023-01-28T14:11:57.739Z,97934.94
2023-01-28T14:14:22.552Z,97940.03
2023-01-28T14:16:35.946Z,97943.47
2023-01-28T14:18:42.873Z,97943.50
2023-01-28T14:20:46.844Z,97948.59
2023-01-28T14:22:51.168Z,97945.19
2023-01-28T14:24:54.769Z,97947.75
2023-01-28T14:27:04.673Z,97961.47
2023-01-28T14:29:19.031Z,97953.75
2023-01-28T14:31:27.770Z,97958.03
2023-01-28T14:33:30.510Z,97960.59
2023-01-28T14:35:35.983Z,97959.72
2023-01-28T14:37:39.386Z,97968.31
2023-01-28T14:39:46.632Z,97970.91
2023-01-28T14:41:51.838Z,97975.22
2023-01-28T14:43:56.855Z,97976.06
2023-01-28T14:46:13.152Z,97979.47
2023-01-28T14:48:25.327Z,97976.03
2023-01-28T14:50:34.985Z,97970.84
2023-01-28T14:52:55.340Z,97978.63
2023-01-28T14:55:13.309Z,97974.28
2023-01-28T14:57:28.851Z,97981.16
2023-01-28T14:59:40.582Z,97980.31
2023-01-28T15:01:46.018Z,97977.75
2023-01-28T15:03:48.670Z,97980.34
2023-01-28T15:05:51.279Z,97981.19
2023-01-28T15:07:54.521Z,97989.75
2023-01-28T15:10:05.143Z,97988.03
2023-01-28T15:12:09.094Z,97993.19
2023-01-28T15:14:17.484Z,97993.19
2023-01-28T15:16:23.770Z,97994.06
2023-01-28T15:18:31.866Z,98002.69
2023-01-28T15:20:34.729Z,98002.63
2023-01-28T15:22:38.428Z,98000.91
2023-01-28T15:24:44.280Z,98000.84
2023-01-28T15:26:48.561Z,98006.84
2023-01-28T15:28:51.944Z,98003.44
2023-01-28T15:30:55.274Z,98010.28
2023-01-28T15:33:01.261Z,98012.84
2023-01-28T15:35:14.086Z,98020.56
2023-01-28T15:37:17.656Z,98027.41
2023-01-28T15:39:22.177Z,98029.09
2023-01-28T15:41:29.332Z,98030.81
2023-01-28T15:43:34.892Z,98026.50
2023-01-28T15:45:37.654Z,98029.97
2023-01-28T15:47:40.348Z,98029.97
2023-01-28T15:49:47.960Z,98042.84
2023-01-28T15:51:52.063Z,98048.81
2023-01-28T15:53:59.438Z,98045.41
2023-01-28T15:56:06.608Z,98047.09
2023-01-28T15:58:21.174Z,98046.22
2023-01-28T16:00:26.070Z,98054.78
2023-01-28T16:02:29.199Z,98059.94
2023-01-28T16:04:31.754Z,98057.41
2023-01-28T16:06:38.695Z,98059.97
2023-01-28T16:08:46.114Z,98062.50
2023-01-28T16:10:53.980Z,98053.06
2023-01-28T16:13:04.867Z,98059.09
2023-01-28T16:15:08.522Z,98053.03
2023-01-28T16:17:16.933Z,98068.50
2023-01-28T16:19:29.827Z,98062.50
2023-01-28T16:21:36.776Z,98055.66
2023-01-28T16:23:41.328Z,98059.91
2023-01-28T16:25:43.928Z,98065.94
2023-01-28T16:27:46.494Z,98067.63
2023-01-28T16:29:49.211Z,98075.38
2023-01-28T16:31:51.864Z,98072.78
2023-01-28T16:33:54.464Z,98075.34
2023-01-28T16:36:07.928Z,98083.94
2023-01-28T16:38:16.694Z,98077.94
2023-01-28T16:40:22.641Z,98083.03
2023-01-28T16:42:26.049Z,98082.19
2023-01-28T16:44:28.649Z,98083.03
2023-01-28T16:46:31.229Z,98081.34
2023-01-28T16:48:33.784Z,98072.75
2023-01-28T16:50:39.760Z,98082.19
2023-01-28T16:52:43.833Z,98081.31
2023-01-28T16:54:46.530Z,98080.47
2023-01-28T16:56:50.540Z,98083.94
2023-01-28T16:58:53.141Z,98080.50
2023-01-28T17:00:56.210Z,98086.53
2023-01-28T17:02:58.838Z,98081.41
2023-01-28T17:05:01.793Z,98083.97
2023-01-28T17:07:04.827Z,98089.94
2023-01-28T17:09:07.562Z,98091.66
2023-01-28T17:11:10.169Z,98095.91
2023-01-28T17:13:14.064Z,98095.91
2023-01-28T17:15:17.429Z,98089.91
2023-01-28T17:17:20.320Z,98093.38
2023-01-28T17:19:23.393Z,98090.78
2023-01-28T17:21:25.985Z,98090.78
2023-01-28T17:23:28.553Z,98091.59
2023-01-28T17:25:31.104Z,98090.78
2023-01-28T17:27:33.645Z,98087.31
2023-01-28T17:29:37.643Z,98092.50
2023-01-28T17:31:40.307Z,98101.94
2023-01-28T17:33:43.190Z,98095.94
2023-01-28T17:35:47.403Z,98089.91
2023-01-28T17:37:53.391Z,98089.00
2023-01-28T17:39:55.983Z,98096.75
2023-01-28T17:41:58.566Z,98099.31
2023-01-28T17:44:01.858Z,98105.31
2023-01-28T17:46:13.283Z,98107.03
2023-01-28T17:48:15.879Z,98100.16
2023-01-28T17:50:18.563Z,98112.16
2023-01-28T17:52:21.103Z,98113.09
2023-01-28T17:54:24.761Z,98121.66
2023-01-28T17:56:28.968Z,98118.19
2023-01-28T17:58:31.582Z,98119.09
2023-01-28T18:00:34.491Z,98120.78
2023-01-28T18:02:38.449Z,98119.09
2023-01-28T18:04:41.798Z,98124.25
2023-01-28T18:06:44.771Z,98124.25
2023-01-28T18:08:47.479Z,98120.81
2023-01-28T18:10:50.056Z,98118.22
2023-01-28T18:12:52.654Z,98119.09
2023-01-28T18:14:55.232Z,98119.09
2023-01-28T18:16:57.813Z,98122.53
2023-01-28T18:19:01.776Z,98128.53
2023-01-28T18:21:06.667Z,98116.50
2023-01-28T18:23:09.399Z,98125.94
2023-01-28T18:25:16.376Z,98122.50
2023-01-28T18:27:20.869Z,98128.50
2023-01-28T18:29:24.100Z,98132.78
2023-01-28T18:31:26.784Z,98138.78
2023-01-28T18:33:29.335Z,98137.91
2023-01-28T18:35:33.261Z,98140.47
2023-01-28T18:37:35.822Z,98133.59
2023-01-28T18:39:39.783Z,98141.31
2023-01-28T18:41:42.646Z,98138.72
2023-01-28T18:43:45.228Z,98137.88
2023-01-28T18:45:50.435Z,98140.47
2023-01-28T18:47:53.015Z,98137.03
2023-01-28T18:49:55.566Z,98127.59
2023-01-28T18:51:59.539Z,98132.75
2023-01-28T18:54:05.092Z,98128.41
2023-01-28T18:56:09.165Z,98127.59
2023-01-28T18:58:11.813Z,98124.16
2023-01-28T19:00:15.325Z,98123.25
2023-01-28T19:02:17.921Z,98118.09
2023-01-28T19:04:20.933Z,98124.13
2023-01-28T19:06:24.077Z,98125.81
2023-01-28T19:08:28.914Z,98135.31
2023-01-28T19:10:31.606Z,98130.97
2023-01-28T19:12:34.187Z,98130.97
2023-01-28T19:14:36.731Z,98127.56
2023-01-28T19:16:39.979Z,98120.69
2023-01-28T19:18:42.663Z,98132.69
2023-01-28T19:20:45.969Z,98136.09
2023-01-28T19:22:48.528Z,98136.97
2023-01-28T19:24:54.556Z,98142.94
2023-01-28T19:26:57.242Z,98138.69
2023-01-28T19:29:00.216Z,98136.94
2023-01-28T19:31:03.923Z,98136.09
2023-01-28T19:33:07.475Z,98138.66
2023-01-28T19:35:10.489Z,98144.63
2023-01-28T19:37:13.389Z,98146.38
2023-01-28T19:39:16.755Z,98142.06
2023-01-28T19:41:20.662Z,98148.91
2023-01-28T19:43:23.556Z,98149.78
2023-01-28T19:45:26.130Z,98143.75
2023-01-28T19:47:28.706Z,98141.19
2023-01-28T19:49:31.504Z,98135.19
2023-01-28T19:51:34.089Z,98141.19
2023-01-28T19:53:37.440Z,98146.38
2023-01-28T19:55:40.033Z,98142.94
2023-01-28T19:57:44.698Z,98148.06
2023-01-28T19:59:47.353Z,98153.22
2023-01-28T20:01:49.959Z,98151.47
2023-01-28T20:03:54.664Z,98144.59
2023-01-28T20:06:00.902Z,98160.03
2023-01-28T20:08:03.648Z,98157.44
2023-01-28T20:10:07.034Z,98158.28
2023-01-28T20:12:11.918Z,98158.28
2023-01-28T20:14:16.146Z,98157.47
2023-01-28T20:16:21.436Z,98161.75
2023-01-28T20:18:24.023Z,98164.31
2023-01-28T20:20:26.571Z,98167.72
2023-01-28T20:22:29.199Z,98176.28
2023-01-28T20:24:31.770Z,98173.69
2023-01-28T20:26:37.311Z,98169.41
2023-01-28T20:28:39.907Z,98162.53
2023-01-28T20:30:43.930Z,98166.88
2023-01-28T20:32:46.550Z,98171.13
2023-01-28T20:34:49.161Z,98184.84
2023-01-28T20:36:51.792Z,98186.56
2023-01-28T20:38:54.694Z,98171.13
2023-01-28T20:40:57.276Z,98179.66
2023-01-28T20:43:00.246Z,98177.94
2023-01-28T20:45:02.850Z,98177.94
2023-01-28T20:47:07.166Z,98178.81
2023-01-28T20:49:10.404Z,98186.53
2023-01-28T20:51:15.297Z,98188.22
2023-01-28T20:53:18.917Z,98180.53
2023-01-28T20:55:21.482Z,98180.50
2023-01-28T20:57:24.032Z,98192.56
2023-01-28T20:59:27.495Z,98190.81
2023-01-28T21:01:31.884Z,98195.97
2023-01-28T21:03:35.826Z,98198.53
2023-01-28T21:05:38.382Z,98196.84
2023-01-28T21:07:40.941Z,98202.88
2023-01-28T21:09:44.698Z,98206.31
2023-01-28T21:11:47.259Z,98207.13
2023-01-28T21:13:50.042Z,98209.69
2023-01-28T21:15:54.814Z,98214.88
2023-01-28T21:17:57.414Z,98218.28
2023-01-28T21:20:01.348Z,98218.28
2023-01-28T21:22:04.076Z,98220.84
2023-01-28T21:24:07.825Z,98221.69
2023-01-28T21:26:11.063Z,98225.13
2023-01-28T21:28:14.538Z,98221.69
2023-01-28T21:30:18.111Z,98214.00
2023-01-28T21:32:25.529Z,98216.53
2023-01-28T21:34:29.421Z,98221.69
2023-01-28T21:36:34.359Z,98227.69
2023-01-28T21:38:36.995Z,98225.13
2023-01-28T21:40:39.898Z,98223.38
2023-01-28T21:42:43.493Z,98209.66
2023-01-28T21:44:47.070Z,98215.63
2023-01-28T21:46:49.662Z,98216.53
2023-01-28T21:48:55.132Z,98211.34
2023-01-28T21:51:22.008Z,98214.78
2023-01-28T21:53:25.943Z,98216.50
2023-01-28T21:55:28.444Z,98213.94
2023-01-28T21:57:31.017Z,98201.88
2023-01-28T21:59:32.688Z,98206.19
2023-01-28T22:01:35.188Z,98211.34
2023-01-28T22:03:37.785Z,98208.75
2023-01-28T22:05:40.329Z,98202.75
2023-01-28T22:07:42.904Z,98198.47
2023-01-28T22:09:48.546Z,98195.00
2023-01-28T22:11:51.204Z,98201.88
2023-01-28T22:13:53.869Z,98206.19
2023-01-28T22:15:56.430Z,98204.44
2023-01-28T22:17:59.006Z,98201.03
2023-01-28T22:20:01.614Z,98202.72
2023-01-28T22:22:04.745Z,98206.09
2023-01-28T22:24:11.891Z,98205.28
2023-01-28T22:26:15.796Z,98207.84
2023-01-28T22:28:18.384Z,98209.50
2023-01-28T22:30:21.048Z,98211.25
2023-01-28T22:32:23.665Z,98207.81
2023-01-28T22:34:27.257Z,98218.13
2023-01-28T22:36:30.038Z,98213.81
2023-01-28T22:38:32.736Z,98213.78
2023-01-28T22:40:35.765Z,98209.53
2023-01-28T22:42:39.716Z,98213.81
2023-01-28T22:44:42.282Z,98219.84
2023-01-28T22:46:44.894Z,98218.97
2023-01-28T22:48:48.189Z,98212.09
2023-01-28T22:50:50.738Z,98209.50
2023-01-28T22:52:53.288Z,98213.75
2023-01-28T22:54:55.867Z,98218.03
2023-01-28T22:56:58.453Z,98218.91
2023-01-28T22:59:03.828Z,98215.44
2023-01-28T23:01:07.254Z,98214.63
2023-01-28T23:03:10.146Z,98212.88
2023-01-28T23:05:12.774Z,98212.91
2023-01-28T23:07:15.370Z,98212.06
2023-01-28T23:09:17.972Z,98207.69
2023-01-28T23:11:27.201Z,98204.25
2023-01-28T23:13:50.849Z,98197.41
2023-01-28T23:16:12.729Z,98207.66
2023-01-28T23:18:36.898Z,98208.50
2023-01-28T23:21:05.985Z,98201.63
2023-01-28T23:23:33.380Z,98202.56
2023-01-28T23:25:36.143Z,98203.38
2023-01-28T23:27:39.600Z,98208.50
2023-01-28T23:29:42.284Z,98209.38
2023-01-28T23:31:48.628Z,98211.91
2023-01-28T23:33:51.278Z,98210.19
2023-01-28T23:35:53.832Z,98216.19
2023-01-28T23:37:56.533Z,98223.00
2023-01-28T23:39:59.831Z,98225.63
2023-01-28T23:42:10.429Z,98221.31
2023-01-28T23:44:13.009Z,98207.63
2023-01-28T23:46:15.621Z,98202.44
2023-01-28T23:48:19.574Z,98205.84
2023-01-28T23:50:22.779Z,98212.69
2023-01-28T23:52:26.654Z,98215.31
2023-01-28T23:54:29.245Z,98214.41
2023-01-28T23:56:31.790Z,98209.34
2023-01-28T23:58:43.411Z,98214.44
